createdAt,value
2022-11-17T00:01:08.161Z,9.27
2022-11-17T00:05:11.014Z,9.27
2022-11-17T00:09:17.323Z,9.27
2022-11-17T00:13:37.672Z,9.30
2022-11-17T00:17:41.915Z,9.34
2022-11-17T00:21:43.636Z,9.39
2022-11-17T00:25:46.307Z,9.38
2022-11-17T00:29:48.988Z,9.42
2022-11-17T00:34:07.036Z,9.44
2022-11-17T00:38:18.992Z,9.46
2022-11-17T00:42:22.162Z,9.48
2022-11-17T00:46:24.907Z,9.50
2022-11-17T00:50:28.951Z,9.56
2022-11-17T00:54:31.637Z,9.57
2022-11-17T00:58:35.383Z,9.58
2022-11-17T01:02:38.128Z,9.61
2022-11-17T01:06:44.229Z,9.64
2022-11-17T01:10:46.982Z,9.65
2022-11-17T01:14:49.682Z,9.63
2022-11-17T01:18:54.218Z,9.60
2022-11-17T01:22:58.265Z,9.61
2022-11-17T01:27:00.982Z,9.65
2022-11-17T01:31:06.945Z,9.60
2022-11-17T01:35:10.188Z,9.57
2022-11-17T01:39:14.414Z,9.52
2022-11-17T01:43:17.094Z,9.55
2022-11-17T01:47:25.026Z,9.45
2022-11-17T01:51:30.523Z,9.44
2022-11-17T01:55:38.234Z,9.39
2022-11-17T01:59:44.560Z,9.36
2022-11-17T02:03:50.220Z,9.32
2022-11-17T02:07:56.868Z,9.36
2022-11-17T02:12:01.884Z,9.33
2022-11-17T02:16:04.975Z,9.38
2022-11-17T02:20:11.124Z,9.37
2022-11-17T02:24:53.768Z,9.40
2022-11-17T02:29:03.082Z,9.38
2022-11-17T02:33:12.211Z,9.36
2022-11-17T02:37:21.751Z,9.33
2022-11-17T02:41:31.038Z,9.29
2022-11-17T02:45:38.580Z,9.29
2022-11-17T02:49:47.123Z,9.26
2022-11-17T02:53:51.331Z,9.23
2022-11-17T02:57:54.021Z,9.23
2022-11-17T03:02:28.376Z,9.21
2022-11-17T03:06:40.390Z,9.24
2022-11-17T03:10:52.563Z,9.20
2022-11-17T03:15:03.894Z,9.16
2022-11-17T03:19:15.860Z,9.15
2022-11-17T03:23:20.828Z,9.11
2022-11-17T03:27:27.231Z,9.13
2022-11-17T03:31:33.279Z,9.13
2022-11-17T03:35:46.389Z,9.15
2022-11-17T03:39:58.166Z,9.16
2022-11-17T03:44:03.539Z,9.11
2022-11-17T03:48:11.584Z,9.11
2022-11-17T03:52:16.062Z,9.12
2022-11-17T03:56:31.489Z,9.13
2022-11-17T04:00:35.842Z,9.10
2022-11-17T04:04:52.435Z,9.13
2022-11-17T04:08:56.464Z,9.13
2022-11-17T04:13:16.638Z,9.11
2022-11-17T04:17:19.511Z,9.14
2022-11-17T04:21:22.189Z,9.13
2022-11-17T04:25:40.223Z,9.17
2022-11-17T04:29:42.938Z,9.14
2022-11-17T04:33:47.179Z,9.12
2022-11-17T04:37:49.870Z,9.12
2022-11-17T04:42:01.894Z,9.08
2022-11-17T04:46:04.613Z,9.05
2022-11-17T04:50:08.431Z,9.05
2022-11-17T04:54:13.494Z,9.07
2022-11-17T04:58:17.896Z,9.07
2022-11-17T05:02:20.607Z,9.02
2022-11-17T05:06:25.360Z,9.07
2022-11-17T05:10:41.995Z,9.07
2022-11-17T05:14:47.587Z,9.09
2022-11-17T05:18:50.445Z,9.07
2022-11-17T05:23:10.610Z,9.08
2022-11-17T05:27:13.393Z,9.12
2022-11-17T05:31:17.510Z,9.09
2022-11-17T05:35:20.219Z,9.12
2022-11-17T05:39:22.932Z,9.17
2022-11-17T05:43:25.651Z,9.20
2022-11-17T05:47:29.720Z,9.23
2022-11-17T05:51:33.128Z,9.25
2022-11-17T05:55:35.978Z,9.24
2022-11-17T05:59:42.727Z,9.28
2022-11-17T06:03:51.101Z,9.32
2022-11-17T06:07:57.633Z,9.29
2022-11-17T06:12:05.522Z,9.24
2022-11-17T06:16:13.069Z,9.31
2022-11-17T06:20:20.973Z,9.34
2022-11-17T06:24:24.521Z,9.32
2022-11-17T06:28:30.655Z,9.35
2022-11-17T06:32:35.761Z,9.33
2022-11-17T06:36:40.040Z,9.35
2022-11-17T06:40:42.913Z,9.34
2022-11-17T06:44:45.534Z,9.36
2022-11-17T06:48:48.286Z,9.35
2022-11-17T06:52:52.331Z,9.32
2022-11-17T06:56:55.385Z,9.37
2022-11-17T07:01:03.395Z,9.38
2022-11-17T07:05:06.656Z,9.32
2022-11-17T07:09:10.659Z,9.32
2022-11-17T07:13:13.272Z,9.32
2022-11-17T07:17:16.014Z,9.29
2022-11-17T07:21:18.783Z,9.31
2022-11-17T07:25:23.088Z,9.26
2022-11-17T07:29:26.118Z,9.27
2022-11-17T07:33:28.836Z,9.25
2022-11-17T07:37:33.475Z,9.29
2022-11-17T07:41:37.598Z,9.28
2022-11-17T07:45:40.400Z,9.28
2022-11-17T07:49:43.228Z,9.25
2022-11-17T07:53:45.994Z,9.26
2022-11-17T07:57:55.374Z,9.32
2022-11-17T08:01:58.180Z,9.34
2022-11-17T08:06:02.784Z,9.38
2022-11-17T08:10:06.297Z,9.48
2022-11-17T08:14:10.685Z,9.52
2022-11-17T08:18:13.396Z,9.52
2022-11-17T08:22:16.120Z,9.56
2022-11-17T08:26:19.239Z,9.59
2022-11-17T08:30:23.896Z,9.62
2022-11-17T08:34:26.701Z,9.64
2022-11-17T08:38:30.191Z,9.65
2022-11-17T08:42:32.947Z,9.70
2022-11-17T08:46:37.681Z,9.79
2022-11-17T08:50:40.492Z,9.93
2022-11-17T08:54:43.213Z,9.99
2022-11-17T08:58:46.435Z,10.08
2022-11-17T09:02:50.652Z,10.15
2022-11-17T09:06:53.451Z,10.25
2022-11-17T09:10:56.235Z,10.30
2022-11-17T09:14:59.068Z,10.34
2022-11-17T09:19:03.278Z,10.37
2022-11-17T09:23:06.004Z,10.44
2022-11-17T09:27:08.694Z,10.50
2022-11-17T09:31:13.563Z,10.55
2022-11-17T09:35:18.821Z,10.59
2022-11-17T09:39:22.021Z,10.60
2022-11-17T09:43:28.804Z,10.64
2022-11-17T09:47:38.702Z,10.63
2022-11-17T09:51:47.715Z,10.65
2022-11-17T09:55:53.899Z,10.70
2022-11-17T10:00:15.596Z,10.73
2022-11-17T10:04:18.583Z,10.77
2022-11-17T10:08:30.539Z,10.78
2022-11-17T10:12:39.776Z,10.86
2022-11-17T10:16:45.656Z,10.84
2022-11-17T10:20:48.896Z,10.84
2022-11-17T10:24:55.450Z,10.88
2022-11-17T10:29:12.416Z,10.82
2022-11-17T10:33:15.186Z,10.89
2022-11-17T10:37:31.161Z,10.94
2022-11-17T10:41:39.929Z,10.97
2022-11-17T10:45:45.366Z,10.92
2022-11-17T10:49:48.132Z,10.98
2022-11-17T10:54:03.511Z,11.00
2022-11-17T10:58:25.525Z,10.98
2022-11-17T11:02:30.523Z,10.95
2022-11-17T11:06:34.955Z,11.00
2022-11-17T11:10:37.699Z,11.04
2022-11-17T11:14:45.681Z,11.00
2022-11-17T11:18:51.913Z,10.91
2022-11-17T11:23:00.605Z,10.78
2022-11-17T11:27:27.722Z,10.75
2022-11-17T11:31:42.757Z,10.80
2022-11-17T11:36:15.195Z,10.80
2022-11-17T11:40:24.573Z,10.81
2022-11-17T11:44:46.699Z,10.90
2022-11-17T11:48:55.006Z,10.95
2022-11-17T11:53:04.931Z,11.00
2022-11-17T11:57:13.407Z,11.09
2022-11-17T12:01:18.823Z,11.13
2022-11-17T12:05:30.209Z,11.13
2022-11-17T12:09:59.144Z,11.21
2022-11-17T12:14:05.637Z,11.28
2022-11-17T12:18:14.928Z,11.35
2022-11-17T12:22:44.419Z,11.34
2022-11-17T12:26:46.992Z,11.35
2022-11-17T12:30:53.646Z,11.41
2022-11-17T12:35:25.477Z,11.43
2022-11-17T12:40:07.816Z,11.48
2022-11-17T12:44:40.365Z,11.52
2022-11-17T12:48:53.987Z,11.58
2022-11-17T12:53:20.661Z,11.64
2022-11-17T12:57:28.119Z,11.72
2022-11-17T13:01:41.422Z,11.75
2022-11-17T13:05:45.486Z,11.77
2022-11-17T13:09:52.664Z,11.74
2022-11-17T13:14:11.628Z,11.74
2022-11-17T13:18:26.878Z,11.65
2022-11-17T13:22:30.956Z,11.65
2022-11-17T13:26:37.888Z,11.62
2022-11-17T13:30:40.640Z,11.64
2022-11-17T13:34:51.698Z,11.62
2022-11-17T13:38:57.300Z,11.59
2022-11-17T13:43:01.159Z,11.57
2022-11-17T13:47:20.648Z,11.53
2022-11-17T13:51:28.788Z,11.54
2022-11-17T13:55:34.218Z,11.52
2022-11-17T13:59:39.928Z,11.58
2022-11-17T14:03:44.013Z,11.55
2022-11-17T14:07:47.540Z,11.51
2022-11-17T14:11:51.612Z,11.49
2022-11-17T14:15:57.603Z,11.48
2022-11-17T14:20:30.760Z,11.38
2022-11-17T14:24:33.587Z,11.34
2022-11-17T14:28:37.577Z,11.27
2022-11-17T14:32:40.242Z,11.23
2022-11-17T14:36:43.133Z,11.19
2022-11-17T14:40:46.112Z,11.16
2022-11-17T14:44:50.081Z,11.11
2022-11-17T14:48:53.921Z,11.03
2022-11-17T14:52:56.621Z,10.99
2022-11-17T14:56:59.222Z,10.97
2022-11-17T15:01:10.151Z,10.96
2022-11-17T15:05:13.355Z,10.88
2022-11-17T15:09:16.408Z,10.83
2022-11-17T15:13:19.067Z,10.79
2022-11-17T15:17:23.026Z,10.78
2022-11-17T15:21:25.639Z,10.71
2022-11-17T15:25:28.237Z,10.69
2022-11-17T15:29:30.892Z,10.66
2022-11-17T15:33:34.874Z,10.63
2022-11-17T15:37:37.448Z,10.59
2022-11-17T15:41:40.044Z,10.57
2022-11-17T15:45:42.665Z,10.53
2022-11-17T15:49:46.860Z,10.54
2022-11-17T15:53:52.406Z,10.54
2022-11-17T15:57:55.465Z,10.48
2022-11-17T16:01:58.119Z,10.43
2022-11-17T16:06:02.053Z,10.41
2022-11-17T16:10:05.253Z,10.41
2022-11-17T16:14:08.182Z,10.37
2022-11-17T16:18:10.808Z,10.38
2022-11-17T16:22:14.800Z,10.37
2022-11-17T16:26:20.028Z,10.35
2022-11-17T16:30:22.705Z,10.35
2022-11-17T16:34:26.165Z,10.37
2022-11-17T16:38:30.126Z,10.35
2022-11-17T16:42:33.464Z,10.36
2022-11-17T16:46:36.336Z,10.36
2022-11-17T16:50:39.494Z,10.36
2022-11-17T16:54:43.493Z,10.35
2022-11-17T16:58:49.765Z,10.35
2022-11-17T17:02:52.551Z,10.32
2022-11-17T17:06:55.374Z,10.38
2022-11-17T17:11:03.982Z,10.36
2022-11-17T17:15:07.585Z,10.42
2022-11-17T17:19:12.441Z,10.40
2022-11-17T17:23:15.027Z,10.43
2022-11-17T17:27:18.976Z,10.44
2022-11-17T17:31:23.296Z,10.43
2022-11-17T17:35:26.002Z,10.41
2022-11-17T17:39:29.041Z,10.39
2022-11-17T17:43:33.017Z,10.39
2022-11-17T17:47:35.723Z,10.39
2022-11-17T17:51:41.595Z,10.36
2022-11-17T17:55:44.207Z,10.41
2022-11-17T17:59:48.121Z,10.40
2022-11-17T18:03:51.898Z,10.40
2022-11-17T18:07:54.509Z,10.38
2022-11-17T18:11:57.111Z,10.40
2022-11-17T18:16:03.879Z,10.39
2022-11-17T18:20:07.708Z,10.35
2022-11-17T18:24:12.411Z,10.29
2022-11-17T18:28:15.003Z,10.25
2022-11-17T18:32:18.928Z,10.20
2022-11-17T18:36:22.070Z,10.18
2022-11-17T18:40:24.710Z,10.12
2022-11-17T18:44:27.294Z,10.05
2022-11-17T18:48:33.164Z,10.01
2022-11-17T18:52:35.771Z,10.01
2022-11-17T18:56:39.813Z,10.04
2022-11-17T19:00:42.472Z,10.06
2022-11-17T19:04:46.481Z,10.08
2022-11-17T19:08:49.297Z,10.12
2022-11-17T19:12:51.907Z,10.15
2022-11-17T19:16:55.509Z,10.21
2022-11-17T19:21:05.805Z,10.25
2022-11-17T19:25:08.940Z,10.26
2022-11-17T19:29:17.181Z,10.32
2022-11-17T19:33:20.390Z,10.33
2022-11-17T19:37:24.403Z,10.31
2022-11-17T19:41:29.019Z,10.31
2022-11-17T19:45:31.647Z,10.38
2022-11-17T19:49:34.306Z,10.40
2022-11-17T19:53:39.291Z,10.42
2022-11-17T19:57:41.895Z,10.45
2022-11-17T20:01:45.198Z,10.47
2022-11-17T20:05:48.111Z,10.49
2022-11-17T20:09:52.873Z,10.49
2022-11-17T20:13:56.107Z,10.44
2022-11-17T20:17:58.727Z,10.42
2022-11-17T20:22:01.321Z,10.35
2022-11-17T20:26:06.590Z,10.31
2022-11-17T20:30:14.917Z,10.30
2022-11-17T20:34:21.155Z,10.27
2022-11-17T20:38:24.115Z,10.25
2022-11-17T20:42:28.044Z,10.23
2022-11-17T20:46:30.743Z,10.18
2022-11-17T20:50:33.397Z,10.15
2022-11-17T20:54:36.402Z,10.15
2022-11-17T20:58:40.811Z,10.09
2022-11-17T21:02:43.467Z,10.00
2022-11-17T21:06:46.071Z,9.95
2022-11-17T21:10:48.680Z,9.94
2022-11-17T21:14:52.610Z,9.89
2022-11-17T21:18:55.290Z,9.82
2022-11-17T21:22:57.908Z,9.76
2022-11-17T21:27:00.478Z,9.66
2022-11-17T21:31:07.579Z,9.57
2022-11-17T21:35:10.263Z,9.52
2022-11-17T21:39:18.451Z,9.46
2022-11-17T21:43:21.484Z,9.37
2022-11-17T21:47:25.431Z,9.27
2022-11-17T21:51:29.889Z,9.23
2022-11-17T21:55:32.776Z,9.18
2022-11-17T21:59:35.450Z,9.18
2022-11-17T22:03:40.427Z,9.11
2022-11-17T22:07:43.142Z,9.09
2022-11-17T22:11:45.904Z,9.05
2022-11-17T22:15:48.539Z,9.08
2022-11-17T22:19:52.510Z,9.11
2022-11-17T22:23:55.184Z,9.10
2022-11-17T22:27:57.859Z,9.06
2022-11-17T22:32:00.581Z,9.02
2022-11-17T22:36:04.874Z,8.97
2022-11-17T22:40:08.333Z,8.90
2022-11-17T22:44:13.569Z,8.80
2022-11-17T22:48:16.191Z,8.71
2022-11-17T22:52:20.143Z,8.63
2022-11-17T22:56:22.738Z,8.55
2022-11-17T23:00:25.760Z,8.46
2022-11-17T23:04:28.591Z,8.41
2022-11-17T23:08:33.033Z,8.44
2022-11-17T23:12:35.644Z,8.50
2022-11-17T23:16:39.136Z,8.51
2022-11-17T23:20:41.782Z,8.52
2022-11-17T23:24:45.790Z,8.54
2022-11-17T23:28:48.795Z,8.58
2022-11-17T23:32:54.019Z,8.63
2022-11-17T23:37:02.285Z,8.66
2022-11-17T23:41:09.635Z,8.68
2022-11-17T23:45:13.082Z,8.68
2022-11-17T23:49:16.108Z,8.72
2022-11-17T23:53:19.111Z,8.74
2022-11-17T23:57:23.209Z,8.79
